createdAt,value
2023-05-06T00:02:11.366Z,14.88
2023-05-06T00:07:13.380Z,9.80
2023-05-06T00:12:14.061Z,12.75
2023-05-06T00:17:14.956Z,12.00
2023-05-06T00:22:17.156Z,14.00
2023-05-06T00:27:17.900Z,13.27
2023-05-06T00:32:18.524Z,13.15
2023-05-06T00:37:20.505Z,12.38
2023-05-06T00:42:23.237Z,12.68
2023-05-06T00:47:24.192Z,15.88
2023-05-06T00:52:26.442Z,14.25
2023-05-06T00:57:27.711Z,14.90
2023-05-06T01:02:39.559Z,14.02
2023-05-06T01:07:53.632Z,14.30
2023-05-06T01:13:03.605Z,14.48
2023-05-06T01:18:11.317Z,13.40
2023-05-06T01:23:14.786Z,16.20
2023-05-06T01:28:15.727Z,13.95
2023-05-06T01:33:24.858Z,17.23
2023-05-06T01:38:35.913Z,20.17
2023-05-06T01:43:42.478Z,18.63
2023-05-06T01:48:46.142Z,16.35
2023-05-06T01:53:48.215Z,14.82
2023-05-06T01:58:48.975Z,18.88
2023-05-06T02:03:49.846Z,20.98
2023-05-06T02:08:52.836Z,14.20
2023-05-06T02:13:58.249Z,13.93
2023-05-06T02:18:59.173Z,22.30
2023-05-06T02:24:01.824Z,17.25
2023-05-06T02:29:02.740Z,18.30
2023-05-06T02:34:04.542Z,19.00
2023-05-06T02:39:06.545Z,21.35
2023-05-06T02:44:08.463Z,16.30
2023-05-06T02:49:09.159Z,17.52
2023-05-06T02:54:11.325Z,16.92
2023-05-06T02:59:12.026Z,14.85
2023-05-06T03:04:12.718Z,15.88
2023-05-06T03:09:15.618Z,16.77
2023-05-06T03:14:16.759Z,13.85
2023-05-06T03:19:17.477Z,16.00
2023-05-06T03:24:20.301Z,15.75
2023-05-06T03:29:22.167Z,15.35
2023-05-06T03:34:23.007Z,13.55
2023-05-06T03:39:25.070Z,14.57
2023-05-06T03:44:26.641Z,19.77
2023-05-06T03:49:27.533Z,18.88
2023-05-06T03:54:29.736Z,15.88
2023-05-06T03:59:30.667Z,14.65
2023-05-06T04:04:32.396Z,17.67
2023-05-06T04:09:34.448Z,14.98
2023-05-06T04:14:40.646Z,15.75
2023-05-06T04:19:42.201Z,14.27
2023-05-06T04:24:45.713Z,13.43
2023-05-06T04:29:47.893Z,15.32
2023-05-06T04:34:50.163Z,17.15
2023-05-06T04:39:52.312Z,15.45
2023-05-06T04:44:53.727Z,15.70
2023-05-06T04:49:59.231Z,14.90
2023-05-06T04:55:02.344Z,23.10
2023-05-06T05:00:06.318Z,13.23
2023-05-06T05:05:08.280Z,18.30
2023-05-06T05:10:12.410Z,15.48
2023-05-06T05:15:13.732Z,16.35
2023-05-06T05:20:14.999Z,13.43
2023-05-06T05:25:17.272Z,15.25
2023-05-06T05:30:19.270Z,11.82
2023-05-06T05:35:20.191Z,16.33
2023-05-06T05:40:23.841Z,14.77
2023-05-06T05:45:27.126Z,16.13
2023-05-06T05:50:28.670Z,15.63
2023-05-06T05:55:33.325Z,21.33
2023-05-06T06:00:34.069Z,22.10
2023-05-06T06:05:42.843Z,20.58
2023-05-06T06:10:45.261Z,19.90
2023-05-06T06:15:51.448Z,19.10
2023-05-06T06:20:53.412Z,20.80
2023-05-06T06:25:55.813Z,22.52
2023-05-06T06:30:56.508Z,24.65
2023-05-06T06:35:58.319Z,27.85
2023-05-06T06:41:00.485Z,23.25
2023-05-06T06:46:01.253Z,20.65
2023-05-06T06:51:01.933Z,22.88
2023-05-06T06:56:03.962Z,22.27
2023-05-06T07:01:04.815Z,17.85
2023-05-06T07:06:05.578Z,15.80
2023-05-06T07:11:07.608Z,18.80
2023-05-06T07:16:08.360Z,17.50
2023-05-06T07:21:09.016Z,17.45
2023-05-06T07:26:11.007Z,18.85
2023-05-06T07:31:11.715Z,16.30
2023-05-06T07:36:12.459Z,16.65
2023-05-06T07:41:14.699Z,21.10
2023-05-06T07:46:15.813Z,22.83
2023-05-06T07:51:17.688Z,26.88
2023-05-06T07:56:20.093Z,24.20
2023-05-06T08:01:20.834Z,25.85
2023-05-06T08:06:21.598Z,26.15
2023-05-06T08:11:23.722Z,26.20
2023-05-06T08:16:25.485Z,26.23
2023-05-06T08:21:26.557Z,25.05
2023-05-06T08:26:28.624Z,28.00
2023-05-06T08:31:29.295Z,28.25
2023-05-06T08:36:30.126Z,29.50
2023-05-06T08:41:35.387Z,31.55
2023-05-06T08:46:36.619Z,26.67
2023-05-06T08:51:39.129Z,35.70
2023-05-06T08:56:46.442Z,32.80
2023-05-06T09:01:47.276Z,29.17
2023-05-06T09:06:48.032Z,29.27
2023-05-06T09:11:54.156Z,27.20
2023-05-06T09:16:54.999Z,30.20
2023-05-06T09:21:56.796Z,29.77
2023-05-06T09:26:59.106Z,29.33
2023-05-06T09:32:06.879Z,33.88
2023-05-06T09:37:07.617Z,35.45
2023-05-06T09:42:09.635Z,33.63
2023-05-06T09:47:11.555Z,34.63
2023-05-06T09:52:13.105Z,32.35
2023-05-06T09:57:18.009Z,30.80
2023-05-06T10:02:20.466Z,35.60
2023-05-06T10:07:23.631Z,31.27
2023-05-06T10:12:26.686Z,38.38
2023-05-06T10:17:28.328Z,34.50
2023-05-06T10:22:42.764Z,30.45
2023-05-06T10:27:46.525Z,31.50
2023-05-06T10:32:47.731Z,31.58
2023-05-06T10:37:50.074Z,26.70
2023-05-06T10:42:52.264Z,28.08
2023-05-06T10:48:12.713Z,26.52
2023-05-06T10:53:13.451Z,29.27
2023-05-06T10:58:17.344Z,25.67
2023-05-06T11:03:24.535Z,27.80
2023-05-06T11:08:27.181Z,26.38
2023-05-06T11:13:30.583Z,28.77
2023-05-06T11:18:45.027Z,21.45
2023-05-06T11:24:08.374Z,22.40
2023-05-06T11:29:10.729Z,22.05
2023-05-06T11:34:14.052Z,17.13
2023-05-06T11:39:14.798Z,17.98
2023-05-06T11:44:30.702Z,15.23
2023-05-06T11:49:31.664Z,18.98
2023-05-06T11:54:35.625Z,16.08
2023-05-06T11:59:39.463Z,13.90
2023-05-06T12:04:41.692Z,13.38
2023-05-06T12:09:44.052Z,14.15
2023-05-06T12:14:47.410Z,16.80
2023-05-06T12:19:48.329Z,18.85
2023-05-06T12:24:49.768Z,17.38
2023-05-06T12:29:54.812Z,15.75
2023-05-06T12:34:56.508Z,22.30
2023-05-06T12:39:59.209Z,26.65
2023-05-06T12:45:14.153Z,19.60
2023-05-06T12:50:14.844Z,18.90
2023-05-06T12:55:15.711Z,22.65
2023-05-06T13:00:18.521Z,19.88
2023-05-06T13:05:19.431Z,16.08
2023-05-06T13:10:20.154Z,19.08
2023-05-06T13:15:22.191Z,15.55
2023-05-06T13:20:22.935Z,15.63
2023-05-06T13:25:23.746Z,16.55
2023-05-06T13:30:25.955Z,17.15
2023-05-06T13:35:26.815Z,17.40
2023-05-06T13:40:27.630Z,18.13
2023-05-06T13:45:29.640Z,17.85
2023-05-06T13:50:30.346Z,19.65
2023-05-06T13:55:31.412Z,24.33
2023-05-06T14:00:33.913Z,23.95
2023-05-06T14:05:34.632Z,24.33
2023-05-06T14:10:35.410Z,28.10
2023-05-06T14:15:37.516Z,26.75
2023-05-06T14:20:38.215Z,27.40
2023-05-06T14:25:39.016Z,24.90
2023-05-06T14:30:41.188Z,27.33
2023-05-06T14:35:42.770Z,32.75
2023-05-06T14:40:43.552Z,33.30
2023-05-06T14:45:45.666Z,27.63
2023-05-06T14:50:46.377Z,27.52
2023-05-06T14:55:48.852Z,26.05
2023-05-06T15:00:50.951Z,28.55
2023-05-06T15:05:51.702Z,44.45
2023-05-06T15:10:52.425Z,28.85
2023-05-06T15:15:54.646Z,30.77
2023-05-06T15:20:57.676Z,26.08
2023-05-06T15:25:58.806Z,28.52
2023-05-06T15:31:00.826Z,29.85
2023-05-06T15:36:01.527Z,28.70
2023-05-06T15:41:02.402Z,32.15
2023-05-06T15:46:04.424Z,28.83
2023-05-06T15:51:05.339Z,25.50
2023-05-06T15:56:13.458Z,24.73
2023-05-06T16:01:23.778Z,19.15
2023-05-06T16:06:36.199Z,21.75
2023-05-06T16:11:36.875Z,22.02
2023-05-06T16:16:38.918Z,25.00
2023-05-06T16:21:39.654Z,24.95
2023-05-06T16:26:40.420Z,26.25
2023-05-06T16:31:42.791Z,27.20
2023-05-06T16:36:43.632Z,23.13
2023-05-06T16:41:44.441Z,26.70
2023-05-06T16:46:46.550Z,29.10
2023-05-06T16:51:47.244Z,61.05
2023-05-06T16:56:52.148Z,34.67
2023-05-06T17:01:54.743Z,25.88
2023-05-06T17:06:56.036Z,19.75
2023-05-06T17:11:57.458Z,23.65
2023-05-06T17:17:02.202Z,22.95
2023-05-06T17:22:02.968Z,27.25
2023-05-06T17:27:03.725Z,24.55
2023-05-06T17:32:06.316Z,24.38
2023-05-06T17:37:07.421Z,29.55
2023-05-06T17:42:08.477Z,34.60
2023-05-06T17:47:10.668Z,27.08
2023-05-06T17:52:11.407Z,28.58
2023-05-06T17:57:12.206Z,29.13
2023-05-06T18:02:15.970Z,27.38
2023-05-06T18:07:16.613Z,27.02
2023-05-06T18:12:17.319Z,30.48
2023-05-06T18:17:19.460Z,26.70
2023-05-06T18:22:20.231Z,26.95
2023-05-06T18:27:20.956Z,28.48
2023-05-06T18:32:22.958Z,21.90
2023-05-06T18:37:23.633Z,22.38
2023-05-06T18:42:24.355Z,21.75
2023-05-06T18:47:26.496Z,23.05
2023-05-06T18:52:27.212Z,21.30
2023-05-06T18:57:27.882Z,23.48
2023-05-06T19:02:30.099Z,20.17
2023-05-06T19:07:30.878Z,24.67
2023-05-06T19:12:31.590Z,18.98
2023-05-06T19:17:33.630Z,22.30
2023-05-06T19:22:34.431Z,24.27
2023-05-06T19:27:35.100Z,27.85
2023-05-06T19:32:37.297Z,26.27
2023-05-06T19:37:38.551Z,24.80
2023-05-06T19:42:39.275Z,19.30
2023-05-06T19:47:41.378Z,26.80
2023-05-06T19:52:42.075Z,17.55
2023-05-06T19:57:42.732Z,17.15
2023-05-06T20:02:44.936Z,16.20
2023-05-06T20:07:45.904Z,16.08
2023-05-06T20:12:46.567Z,13.57
2023-05-06T20:17:48.739Z,16.80
2023-05-06T20:22:49.520Z,15.98
2023-05-06T20:27:50.238Z,14.20
2023-05-06T20:32:52.301Z,15.80
2023-05-06T20:37:54.484Z,21.13
2023-05-06T20:42:55.255Z,20.27
2023-05-06T20:47:57.279Z,19.75
2023-05-06T20:52:58.055Z,20.55
2023-05-06T20:57:58.731Z,19.67
2023-05-06T21:03:01.373Z,18.88
2023-05-06T21:08:02.274Z,16.42
2023-05-06T21:13:02.977Z,16.15
2023-05-06T21:18:05.265Z,14.32
2023-05-06T21:23:06.073Z,15.40
2023-05-06T21:28:06.834Z,12.95
2023-05-06T21:33:11.122Z,12.23
2023-05-06T21:38:11.947Z,12.57
2023-05-06T21:43:12.787Z,14.43
2023-05-06T21:48:14.819Z,11.50
2023-05-06T21:53:15.537Z,12.27
2023-05-06T21:58:16.254Z,10.93
2023-05-06T22:03:18.369Z,9.50
2023-05-06T22:08:19.154Z,9.93
2023-05-06T22:13:20.167Z,11.25
2023-05-06T22:18:22.302Z,12.32
2023-05-06T22:23:23.965Z,10.00
2023-05-06T22:28:24.738Z,9.07
2023-05-06T22:33:27.041Z,9.85
2023-05-06T22:38:27.729Z,8.60
2023-05-06T22:43:28.421Z,12.95
2023-05-06T22:48:31.682Z,11.90
2023-05-06T22:53:32.420Z,13.90
2023-05-06T22:58:33.540Z,14.55
2023-05-06T23:03:36.177Z,16.48
2023-05-06T23:08:36.895Z,16.85
2023-05-06T23:13:37.760Z,17.27
2023-05-06T23:18:39.857Z,17.52
2023-05-06T23:23:40.581Z,20.75
2023-05-06T23:28:41.237Z,23.98
2023-05-06T23:33:43.226Z,23.63
2023-05-06T23:38:43.890Z,27.55
2023-05-06T23:43:44.520Z,24.80
2023-05-06T23:48:46.495Z,23.55
2023-05-06T23:53:47.308Z,25.35
2023-05-06T23:58:47.987Z,22.38
